This is the latest recevied weather packets stored in our database for station/object KA0WKG. If no packets are shown the sender has not sent any weather packets the latest 10 day(s).
| Time | Temp. | Humidity | Pressure | Rain* | Wind** | Luminosity | Snow |
|---|---|---|---|---|---|---|---|
| 1777115104 | 3.89° C | 88% | 1011.4 hPa | 0 mm | - | - | - |
| 1777113006 | 3.89° C | 87% | 1010.9 hPa | 0 mm | - | - | - |
| 1777111504 | 3.89° C | 88% | 1010.7 hPa | 0 mm | - | - | - |
| 1777107605 | 3.89° C | 87% | 1010.1 hPa | 0 mm | - | - | - |
| 1777106104 | 3.89° C | 88% | 1009.7 hPa | 0 mm | - | - | - |
| 1777104004 | 3.33° C | 88% | 1009.4 hPa | 0 mm | - | - | - |
| 1777102208 | 3.33° C | 90% | 1009.5 hPa | 0 mm | - | - | - |
| 1777099210 | 3.33° C | 90% | 1008.2 hPa | 0 mm | - | - | - |
| 1777095009 | 3.89° C | 89% | 1007.3 hPa | 0 mm | - | - | - |
| 1777092008 | 5° C | 88% | 1006.8 hPa | 0 mm | - | - | - |
| 1777085408 | 9.44° C | 66% | 1004.4 hPa | 0 mm | - | - | - |
| 1777084508 | 13.33° C | 50% | 1003.5 hPa | 0 mm | - | - | - |
| 1777082708 | 20° C | 12% | 1000.9 hPa | 0 mm | - | - | - |
| 1777081507 | 20.56° C | 12% | 1000.7 hPa | 0 mm | - | - | - |
| 1777080308 | 21.11° C | 12% | 1000.8 hPa | 0 mm | - | - | - |
| 1777078508 | 22.22° C | 12% | 1001.1 hPa | 0 mm | - | - | - |
| 1777078209 | 22.22° C | 11% | 1001.1 hPa | 0 mm | - | - | - |
| 1777074308 | 23.33° C | 14% | 1001.4 hPa | 0 mm | - | - | - |
| 1777070408 | 23.33° C | 15% | 1002.2 hPa | 0 mm | - | - | - |
| 1777069207 | 23.33° C | 15% | 1002.4 hPa | 0 mm | - | - | - |
| 1777068907 | 23.33° C | 15% | 1002.6 hPa | 0 mm | - | - | - |
| 1777062007 | 21.11° C | 28% | 1005.3 hPa | 0 mm | - | - | - |
| 1777060506 | 20° C | 31% | 1006.2 hPa | 0 mm | - | - | - |
| 1777058706 | 19.44° C | 34% | 1007.1 hPa | 0 mm | - | - | - |
| 1777058106 | 18.33° C | 35% | 1007.4 hPa | 0 mm | - | - | - |
* Rain latest hour (hover to see other rain measurements)
** Current wind speed in m/s (hover to see current wind gust speed)